Saint Johnsbury, Vermont
Current Conditions -  °F | °C
As of 3:15 PM on Friday 19 Dec 2014 (Local Time) from KCDA Reporting Station
Overcast Overcast  
Wind Chill: 14°   Ceiling: 1700
Heat Index: 23°   Visibility: 10mi
Dew Point: 17°   Wind: 8mph
Humidity: 77%   Direction: 330°NNW
Pressure: 30.03"   Gusts: NA
Location:  44.42°N, 72.01°W
Report Text: KCDA 192015Z AUTO 33007KT 10SM OVC017 M05/M08 A3003 RMK AO2 T10501085
Loading
Personal Weather Stations






























Interactive Weather Map New forecast layout! Learn more

10-Day Weather Forecast

Advertisements
Track Severe Weather on mobile